createdAt,value
2023-03-06T00:01:31.122Z,12.40
2023-03-06T00:03:57.660Z,8.30
2023-03-06T00:06:24.225Z,10.43
2023-03-06T00:08:50.660Z,4.30
2023-03-06T00:11:17.399Z,8.03
2023-03-06T00:13:43.878Z,6.20
2023-03-06T00:16:10.333Z,6.97
2023-03-06T00:18:36.881Z,9.43
2023-03-06T00:21:07.094Z,7.57
2023-03-06T00:23:33.592Z,7.80
2023-03-06T00:26:00.035Z,10.20
2023-03-06T00:28:27.235Z,10.37
2023-03-06T00:30:53.694Z,11.77
2023-03-06T00:33:20.151Z,15.40
2023-03-06T00:35:46.551Z,14.67
2023-03-06T00:38:13.616Z,9.27
2023-03-06T00:40:40.167Z,14.33
2023-03-06T00:43:06.632Z,6.70
2023-03-06T00:45:33.232Z,10.17
2023-03-06T00:47:59.807Z,10.63
2023-03-06T00:50:26.462Z,10.87
2023-03-06T00:52:52.843Z,8.17
2023-03-06T00:55:19.306Z,8.30
2023-03-06T00:57:45.741Z,8.70
2023-03-06T01:00:13.835Z,6.93
2023-03-06T01:02:40.590Z,7.60
2023-03-06T01:05:07.921Z,8.73
2023-03-06T01:07:36.581Z,12.03
2023-03-06T01:10:05.251Z,10.07
2023-03-06T01:12:31.755Z,6.57
2023-03-06T01:14:58.174Z,8.93
2023-03-06T01:17:24.621Z,6.77
2023-03-06T01:19:51.040Z,7.23
2023-03-06T01:22:17.438Z,9.70
2023-03-06T01:24:43.861Z,7.80
2023-03-06T01:27:10.368Z,9.90
2023-03-06T01:29:36.838Z,9.47
2023-03-06T01:32:03.493Z,10.03
2023-03-06T01:34:30.052Z,10.33
2023-03-06T01:36:56.518Z,12.27
2023-03-06T01:39:22.982Z,8.93
2023-03-06T01:41:49.411Z,11.70
2023-03-06T01:44:15.870Z,12.70
2023-03-06T01:46:44.569Z,13.50
2023-03-06T01:49:29.440Z,11.77
2023-03-06T01:52:01.747Z,12.83
2023-03-06T01:54:33.107Z,12.37
2023-03-06T01:57:05.626Z,14.47
2023-03-06T01:59:35.220Z,10.67
2023-03-06T02:02:03.504Z,14.83
2023-03-06T02:04:30.682Z,12.37
2023-03-06T02:07:00.206Z,11.60
2023-03-06T02:09:29.963Z,11.97
2023-03-06T02:11:56.376Z,13.07
2023-03-06T02:14:23.343Z,12.70
2023-03-06T02:16:50.588Z,14.00
2023-03-06T02:20:03.234Z,13.97
2023-03-06T02:22:49.810Z,16.00
2023-03-06T02:25:33.841Z,13.70
2023-03-06T02:28:01.241Z,14.83
2023-03-06T02:30:29.292Z,11.50
2023-03-06T02:32:56.849Z,10.60
2023-03-06T02:35:32.881Z,14.13
2023-03-06T02:38:05.112Z,16.43
2023-03-06T02:40:31.949Z,10.97
2023-03-06T02:42:59.265Z,12.80
2023-03-06T02:45:45.246Z,12.30
2023-03-06T02:48:13.713Z,14.27
2023-03-06T02:50:41.433Z,17.77
2023-03-06T02:53:09.561Z,13.30
2023-03-06T02:55:36.614Z,21.53
2023-03-06T02:58:03.631Z,11.67
2023-03-06T03:00:30.814Z,16.37
2023-03-06T03:02:57.390Z,14.73
2023-03-06T03:05:24.380Z,15.63
2023-03-06T03:07:50.896Z,13.10
2023-03-06T03:10:17.605Z,16.03
2023-03-06T03:12:45.131Z,14.77
2023-03-06T03:15:12.176Z,14.47
2023-03-06T03:17:40.366Z,16.53
2023-03-06T03:20:09.932Z,13.70
2023-03-06T03:22:36.389Z,14.90
2023-03-06T03:25:04.127Z,13.67
2023-03-06T03:27:30.672Z,15.30
2023-03-06T03:29:58.435Z,13.83
2023-03-06T03:32:25.242Z,15.27
2023-03-06T03:34:51.860Z,11.37
2023-03-06T03:37:18.911Z,14.30
2023-03-06T03:39:45.307Z,13.30
2023-03-06T03:42:11.726Z,16.30
2023-03-06T03:44:38.184Z,17.03
2023-03-06T03:47:05.200Z,13.83
2023-03-06T03:49:31.640Z,13.43
2023-03-06T03:51:58.073Z,16.07
2023-03-06T03:54:24.626Z,13.97
2023-03-06T03:56:51.129Z,15.30
2023-03-06T03:59:17.510Z,10.93
2023-03-06T04:01:45.863Z,14.43
2023-03-06T04:04:12.725Z,13.63
2023-03-06T04:06:39.154Z,12.83
2023-03-06T04:09:05.725Z,12.90
2023-03-06T04:11:32.160Z,13.33
2023-03-06T04:13:58.781Z,14.83
2023-03-06T04:16:25.338Z,13.80
2023-03-06T04:18:51.849Z,13.10
2023-03-06T04:21:18.291Z,15.33
2023-03-06T04:23:44.821Z,14.63
2023-03-06T04:26:11.371Z,15.33
2023-03-06T04:28:37.867Z,15.60
2023-03-06T04:31:04.651Z,15.17
2023-03-06T04:33:31.268Z,14.73
2023-03-06T04:35:57.720Z,12.03
2023-03-06T04:38:24.138Z,12.83
2023-03-06T04:40:50.646Z,13.80
2023-03-06T04:43:17.524Z,13.53
2023-03-06T04:45:44.044Z,14.50
2023-03-06T04:48:14.372Z,13.73
2023-03-06T04:50:41.028Z,15.93
2023-03-06T04:53:08.630Z,13.63
2023-03-06T04:55:35.266Z,15.47
2023-03-06T04:58:01.744Z,12.03
2023-03-06T05:00:31.441Z,13.37
2023-03-06T05:02:59.954Z,14.57
2023-03-06T05:05:27.420Z,12.97
2023-03-06T05:07:53.966Z,11.80
2023-03-06T05:10:21.184Z,10.47
2023-03-06T05:12:47.688Z,14.40
2023-03-06T05:15:15.057Z,12.27
2023-03-06T05:17:41.799Z,14.87
2023-03-06T05:20:10.540Z,10.03
2023-03-06T05:22:37.269Z,11.97
2023-03-06T05:25:04.953Z,11.83
2023-03-06T05:27:31.464Z,16.13
2023-03-06T05:29:58.077Z,10.93
2023-03-06T05:32:24.597Z,13.57
2023-03-06T05:34:51.173Z,10.43
2023-03-06T05:37:17.637Z,11.07
2023-03-06T05:39:44.297Z,11.13
2023-03-06T05:42:10.716Z,8.70
2023-03-06T05:44:37.999Z,14.03
2023-03-06T05:47:04.791Z,10.43
2023-03-06T05:49:33.823Z,12.40
2023-03-06T05:52:01.529Z,9.10
2023-03-06T05:54:28.056Z,12.47
2023-03-06T05:56:54.598Z,10.60
2023-03-06T05:59:21.120Z,12.60
2023-03-06T06:01:47.589Z,11.93
2023-03-06T06:04:14.010Z,9.97
2023-03-06T06:06:40.596Z,13.13
2023-03-06T06:09:07.098Z,9.07
2023-03-06T06:11:33.603Z,10.97
2023-03-06T06:14:00.124Z,11.83
2023-03-06T06:16:26.623Z,11.87
2023-03-06T06:18:53.083Z,12.93
2023-03-06T06:21:19.528Z,17.07
2023-03-06T06:23:46.246Z,12.97
2023-03-06T06:26:12.733Z,8.77
2023-03-06T06:28:39.184Z,14.07
2023-03-06T06:31:12.651Z,10.47
2023-03-06T06:33:40.601Z,13.33
2023-03-06T06:36:15.978Z,8.20
2023-03-06T06:38:42.511Z,11.90
2023-03-06T06:41:38.886Z,8.97
2023-03-06T06:43:58.074Z,8.13
2023-03-06T06:47:10.872Z,9.43
2023-03-06T06:49:13.121Z,9.53
2023-03-06T06:51:40.106Z,13.90
2023-03-06T06:54:06.958Z,10.83
2023-03-06T06:56:33.464Z,11.70
2023-03-06T06:59:15.629Z,9.53
2023-03-06T07:01:43.524Z,14.80
2023-03-06T07:04:12.936Z,10.77
2023-03-06T07:06:39.572Z,11.47
2023-03-06T07:09:06.126Z,10.40
2023-03-06T07:11:32.640Z,12.90
2023-03-06T07:13:59.317Z,11.77
2023-03-06T07:16:25.805Z,13.83
2023-03-06T07:18:52.248Z,14.97
2023-03-06T07:21:18.772Z,14.03
2023-03-06T07:23:45.261Z,13.77
2023-03-06T07:26:11.757Z,10.73
2023-03-06T07:28:51.512Z,11.37
2023-03-06T07:31:19.951Z,9.50
2023-03-06T07:33:46.428Z,10.97
2023-03-06T07:36:13.920Z,9.00
2023-03-06T07:38:40.631Z,9.20
2023-03-06T07:41:13.126Z,10.73
2023-03-06T07:43:41.238Z,7.67
2023-03-06T07:46:08.402Z,7.00
2023-03-06T07:48:36.445Z,9.37
2023-03-06T07:51:06.435Z,9.03
2023-03-06T07:53:34.194Z,10.80
2023-03-06T07:56:00.900Z,7.83
2023-03-06T07:58:27.427Z,8.63
2023-03-06T08:00:53.896Z,8.37
2023-03-06T08:03:20.504Z,7.80
2023-03-06T08:05:47.166Z,9.87
2023-03-06T08:08:13.723Z,6.83
2023-03-06T08:10:40.254Z,7.10
2023-03-06T08:13:06.720Z,5.10
2023-03-06T08:15:33.264Z,6.07
2023-03-06T08:17:59.912Z,8.27
2023-03-06T08:20:26.423Z,6.13
2023-03-06T08:22:52.898Z,8.27
2023-03-06T08:25:19.489Z,5.37
2023-03-06T08:27:47.396Z,6.60
2023-03-06T08:30:14.740Z,5.40
2023-03-06T08:32:41.412Z,5.53
2023-03-06T08:35:08.414Z,4.60
2023-03-06T08:37:34.982Z,6.33
2023-03-06T08:40:04.490Z,6.20
2023-03-06T08:42:31.944Z,5.10
2023-03-06T08:44:58.432Z,3.73
2023-03-06T08:47:25.014Z,5.27
2023-03-06T08:49:51.568Z,3.13
2023-03-06T08:52:19.853Z,3.47
2023-03-06T08:54:46.508Z,4.17
2023-03-06T08:57:13.013Z,2.83
2023-03-06T08:59:39.562Z,6.50
2023-03-06T09:02:07.606Z,5.37
2023-03-06T09:04:34.329Z,5.20
2023-03-06T09:07:00.933Z,3.30
2023-03-06T09:09:27.435Z,2.50
2023-03-06T09:11:54.900Z,2.97
2023-03-06T09:14:21.361Z,4.17
2023-03-06T09:16:47.835Z,3.87
2023-03-06T09:19:14.356Z,2.13
2023-03-06T09:21:40.831Z,5.23
2023-03-06T09:24:07.603Z,3.17
2023-03-06T09:26:45.495Z,2.77
2023-03-06T09:29:13.374Z,3.00
2023-03-06T09:31:39.910Z,3.00
2023-03-06T09:34:06.364Z,2.73
2023-03-06T09:36:40.226Z,1.67
2023-03-06T09:39:12.532Z,2.50
2023-03-06T09:41:42.333Z,3.00
2023-03-06T09:44:18.574Z,2.97
2023-03-06T09:47:00.266Z,3.63
2023-03-06T09:49:40.054Z,4.10
2023-03-06T09:52:30.652Z,2.90
2023-03-06T09:54:59.432Z,2.70
2023-03-06T09:57:30.772Z,2.50
2023-03-06T10:00:05.832Z,5.00
2023-03-06T10:02:44.441Z,2.77
2023-03-06T10:05:19.886Z,3.80
2023-03-06T10:07:52.814Z,4.07
2023-03-06T10:10:27.150Z,3.93
2023-03-06T10:13:15.263Z,3.27
2023-03-06T10:15:46.144Z,3.50
2023-03-06T10:18:13.390Z,3.87
2023-03-06T10:20:45.645Z,5.10
2023-03-06T10:23:30.613Z,3.87
2023-03-06T10:26:01.227Z,2.53
2023-03-06T10:28:30.655Z,4.63
2023-03-06T10:31:16.889Z,2.03
2023-03-06T10:33:49.551Z,3.30
2023-03-06T10:36:17.745Z,1.97
2023-03-06T10:38:45.528Z,7.57
2023-03-06T10:41:11.966Z,2.30
2023-03-06T10:44:03.772Z,3.10
2023-03-06T10:46:35.879Z,1.40
2023-03-06T10:49:05.368Z,1.90
2023-03-06T10:51:34.141Z,1.63
2023-03-06T10:54:03.995Z,1.30
2023-03-06T10:56:34.665Z,2.83
2023-03-06T10:59:26.555Z,2.57
2023-03-06T11:01:55.899Z,3.87
2023-03-06T11:04:31.279Z,1.60
2023-03-06T11:07:17.899Z,1.77
2023-03-06T11:09:56.634Z,4.17
2023-03-06T11:12:36.709Z,2.23
2023-03-06T11:15:17.443Z,2.27
2023-03-06T11:17:52.492Z,2.53
2023-03-06T11:20:22.344Z,3.03
2023-03-06T11:22:54.913Z,7.00
2023-03-06T11:25:26.260Z,1.83
2023-03-06T11:27:59.368Z,6.27
2023-03-06T11:30:44.230Z,2.60
2023-03-06T11:33:30.560Z,2.37
2023-03-06T11:36:13.255Z,2.40
2023-03-06T11:38:53.641Z,3.27
2023-03-06T11:41:29.162Z,3.30
2023-03-06T11:44:06.399Z,2.03
2023-03-06T11:46:44.317Z,2.93
2023-03-06T11:49:26.228Z,2.83
2023-03-06T11:52:00.587Z,4.23
2023-03-06T11:54:27.280Z,4.10
2023-03-06T11:56:59.729Z,4.07
2023-03-06T11:59:41.396Z,3.70
2023-03-06T12:02:13.640Z,3.03
2023-03-06T12:04:47.949Z,3.77
2023-03-06T12:07:29.682Z,3.10
2023-03-06T12:10:23.415Z,1.37
2023-03-06T12:13:08.999Z,3.57
2023-03-06T12:15:56.183Z,1.53
2023-03-06T12:18:57.437Z,4.53
2023-03-06T12:21:38.208Z,2.53
2023-03-06T12:24:17.871Z,4.23
2023-03-06T12:26:54.722Z,6.23
2023-03-06T12:29:42.892Z,4.60
2023-03-06T12:32:16.977Z,4.07
2023-03-06T12:35:08.731Z,6.43
2023-03-06T12:37:44.062Z,3.43
2023-03-06T12:40:46.424Z,4.00
2023-03-06T12:43:48.032Z,4.87
2023-03-06T12:46:18.864Z,3.47
2023-03-06T12:49:07.724Z,5.50
2023-03-06T12:51:34.743Z,4.47
2023-03-06T12:54:03.368Z,5.07
2023-03-06T12:56:31.968Z,5.17
2023-03-06T12:59:02.683Z,4.17
2023-03-06T13:01:48.891Z,6.13
2023-03-06T13:04:51.971Z,3.93
2023-03-06T13:07:43.416Z,4.83
2023-03-06T13:10:25.369Z,4.67
2023-03-06T13:13:05.236Z,12.23
2023-03-06T13:15:40.683Z,10.33
2023-03-06T13:18:22.605Z,8.30
2023-03-06T13:20:51.214Z,6.23
2023-03-06T13:23:29.760Z,6.63
2023-03-06T13:25:58.141Z,7.67
2023-03-06T13:28:44.983Z,5.33
2023-03-06T13:31:38.122Z,6.70
2023-03-06T13:34:06.211Z,8.00
2023-03-06T13:36:39.569Z,5.77
2023-03-06T13:39:10.484Z,7.37
2023-03-06T13:41:58.363Z,8.67
2023-03-06T13:44:24.818Z,11.23
2023-03-06T13:47:05.067Z,12.73
2023-03-06T13:49:33.553Z,8.17
2023-03-06T13:52:08.579Z,7.73
2023-03-06T13:55:04.015Z,6.60
2023-03-06T13:57:48.537Z,8.47
2023-03-06T14:00:43.446Z,7.87
2023-03-06T14:03:15.655Z,7.77
2023-03-06T14:05:43.354Z,10.13
2023-03-06T14:08:22.072Z,9.97
2023-03-06T14:11:00.841Z,8.60
2023-03-06T14:13:45.262Z,10.03
2023-03-06T14:16:32.662Z,7.80
2023-03-06T14:19:04.215Z,8.07
2023-03-06T14:21:49.073Z,12.80
2023-03-06T14:24:18.069Z,8.93
2023-03-06T14:26:50.287Z,12.77
2023-03-06T14:29:24.994Z,7.50
2023-03-06T14:31:54.228Z,8.50
2023-03-06T14:34:22.476Z,6.67
2023-03-06T14:36:54.235Z,7.20
2023-03-06T14:39:35.597Z,4.73
2023-03-06T14:42:17.076Z,6.60
2023-03-06T14:44:43.760Z,7.90
2023-03-06T14:47:28.538Z,6.67
2023-03-06T14:50:21.485Z,7.27
2023-03-06T14:52:49.350Z,8.13
2023-03-06T14:55:22.259Z,7.10
2023-03-06T14:57:58.166Z,6.93
2023-03-06T15:00:30.159Z,6.73
2023-03-06T15:02:57.873Z,8.53
2023-03-06T15:05:28.490Z,9.87
2023-03-06T15:07:59.444Z,9.60
2023-03-06T15:10:32.260Z,9.37
2023-03-06T15:13:20.721Z,10.37
2023-03-06T15:16:13.782Z,12.87
2023-03-06T15:18:54.324Z,10.20
2023-03-06T15:21:22.765Z,8.63
2023-03-06T15:23:51.854Z,12.53
2023-03-06T15:26:28.712Z,10.93
2023-03-06T15:29:09.904Z,9.67
2023-03-06T15:31:39.085Z,7.63
2023-03-06T15:34:11.518Z,8.23
2023-03-06T15:36:39.150Z,11.27
2023-03-06T15:39:27.059Z,11.60
2023-03-06T15:41:58.368Z,9.47
2023-03-06T15:44:25.642Z,11.00
2023-03-06T15:46:59.239Z,10.53
2023-03-06T15:49:33.044Z,11.00
2023-03-06T15:51:59.495Z,11.47
2023-03-06T15:54:25.997Z,11.53
2023-03-06T15:56:52.564Z,12.23
2023-03-06T15:59:25.576Z,8.53
2023-03-06T16:01:53.237Z,11.27
2023-03-06T16:04:20.067Z,9.73
2023-03-06T16:06:46.656Z,14.03
2023-03-06T16:09:13.897Z,14.27
2023-03-06T16:11:47.080Z,12.07
2023-03-06T16:14:21.058Z,12.60
2023-03-06T16:16:49.330Z,14.43
2023-03-06T16:19:26.002Z,12.93
2023-03-06T16:21:54.451Z,16.73
2023-03-06T16:24:20.927Z,13.17
2023-03-06T16:26:50.856Z,12.73
2023-03-06T16:29:19.356Z,13.03
2023-03-06T16:31:46.374Z,16.47
2023-03-06T16:34:12.961Z,11.37
2023-03-06T16:36:40.336Z,12.53
2023-03-06T16:39:11.868Z,14.10
2023-03-06T16:41:38.298Z,14.10
2023-03-06T16:44:07.690Z,12.47
2023-03-06T16:46:38.665Z,15.43
2023-03-06T16:49:05.110Z,13.50
2023-03-06T16:51:31.910Z,15.13
2023-03-06T16:53:58.356Z,14.03
2023-03-06T16:56:24.875Z,15.50
2023-03-06T16:58:51.349Z,16.23
2023-03-06T17:01:19.966Z,14.63
2023-03-06T17:03:46.522Z,18.83
2023-03-06T17:06:23.231Z,13.90
2023-03-06T17:08:50.414Z,21.63
2023-03-06T17:11:17.701Z,15.70
2023-03-06T17:13:44.284Z,21.13
2023-03-06T17:16:18.051Z,19.87
2023-03-06T17:18:45.683Z,21.93
2023-03-06T17:21:17.320Z,18.27
2023-03-06T17:23:44.574Z,21.63
2023-03-06T17:26:18.126Z,24.20
2023-03-06T17:28:45.578Z,23.10
2023-03-06T17:31:14.439Z,21.40
2023-03-06T17:33:41.383Z,22.97
2023-03-06T17:36:09.000Z,18.37
2023-03-06T17:38:35.696Z,19.47
2023-03-06T17:41:06.669Z,19.53
2023-03-06T17:43:34.184Z,20.13
2023-03-06T17:46:12.437Z,26.40
2023-03-06T17:48:39.768Z,21.17
2023-03-06T17:51:06.718Z,24.03
2023-03-06T17:53:33.300Z,17.90
2023-03-06T17:56:00.111Z,19.87
2023-03-06T17:58:27.445Z,19.43
2023-03-06T18:00:54.301Z,22.23
2023-03-06T18:03:21.180Z,22.27
2023-03-06T18:05:48.080Z,25.13
2023-03-06T18:08:14.577Z,20.10
2023-03-06T18:10:41.961Z,20.00
2023-03-06T18:13:10.148Z,21.60
2023-03-06T18:15:41.547Z,24.80
2023-03-06T18:18:08.660Z,18.87
2023-03-06T18:20:40.684Z,19.63
2023-03-06T18:23:07.105Z,22.30
2023-03-06T18:25:33.662Z,22.27
2023-03-06T18:28:00.163Z,21.37
2023-03-06T18:30:26.904Z,23.00
2023-03-06T18:32:53.919Z,21.17
2023-03-06T18:35:21.144Z,20.37
2023-03-06T18:37:47.702Z,19.20
2023-03-06T18:40:14.481Z,21.87
2023-03-06T18:42:40.926Z,20.93
2023-03-06T18:45:08.020Z,19.37
2023-03-06T18:47:34.426Z,18.47
2023-03-06T18:50:02.775Z,18.57
2023-03-06T18:52:29.285Z,18.97
2023-03-06T18:54:55.826Z,18.47
2023-03-06T18:57:22.297Z,16.80
2023-03-06T18:59:49.044Z,19.13
2023-03-06T19:02:15.607Z,20.00
2023-03-06T19:04:42.070Z,21.47
2023-03-06T19:07:08.491Z,17.90
2023-03-06T19:09:35.054Z,21.70
2023-03-06T19:12:03.522Z,25.37
2023-03-06T19:14:30.625Z,23.13
2023-03-06T19:16:57.351Z,17.50
2023-03-06T19:19:26.932Z,23.10
2023-03-06T19:21:53.736Z,23.80
2023-03-06T19:24:20.307Z,19.17
2023-03-06T19:26:46.979Z,25.90
2023-03-06T19:29:13.472Z,20.60
2023-03-06T19:31:40.020Z,21.00
2023-03-06T19:34:06.603Z,18.00
2023-03-06T19:36:34.234Z,21.47
2023-03-06T19:39:03.866Z,19.70
2023-03-06T19:41:30.544Z,19.03
2023-03-06T19:43:59.416Z,22.77
2023-03-06T19:46:26.797Z,20.20
2023-03-06T19:49:01.687Z,25.17
2023-03-06T19:51:29.040Z,21.03
2023-03-06T19:53:57.457Z,24.20
2023-03-06T19:56:26.814Z,24.57
2023-03-06T19:58:53.501Z,23.50
2023-03-06T20:01:21.894Z,17.60
2023-03-06T20:03:50.669Z,22.37
2023-03-06T20:06:19.478Z,18.47
2023-03-06T20:08:47.432Z,21.30
2023-03-06T20:11:25.231Z,19.80
2023-03-06T20:13:51.746Z,20.93
2023-03-06T20:16:18.851Z,22.50
2023-03-06T20:18:45.677Z,20.87
2023-03-06T20:21:12.532Z,21.43
2023-03-06T20:23:39.138Z,19.53
2023-03-06T20:26:09.504Z,23.73
2023-03-06T20:28:38.141Z,19.10
2023-03-06T20:31:17.747Z,15.00
2023-03-06T20:33:49.637Z,19.33
2023-03-06T20:36:19.452Z,19.63
2023-03-06T20:38:46.900Z,21.70
2023-03-06T20:41:18.814Z,17.30
2023-03-06T20:43:45.742Z,20.63
2023-03-06T20:46:13.616Z,18.33
2023-03-06T20:48:41.669Z,20.50
2023-03-06T20:51:16.258Z,20.50
2023-03-06T20:53:42.740Z,22.40
2023-03-06T20:56:16.526Z,21.60
2023-03-06T20:58:43.588Z,20.87
2023-03-06T21:01:18.396Z,12.87
2023-03-06T21:03:44.914Z,24.07
2023-03-06T21:06:11.409Z,17.20
2023-03-06T21:08:37.934Z,18.20
2023-03-06T21:11:04.534Z,21.30
2023-03-06T21:13:30.960Z,20.77
2023-03-06T21:15:57.499Z,20.70
2023-03-06T21:18:24.129Z,21.17
2023-03-06T21:20:50.710Z,17.23
2023-03-06T21:23:17.224Z,20.63
2023-03-06T21:25:50.588Z,19.20
2023-03-06T21:28:17.285Z,18.83
2023-03-06T21:30:44.565Z,21.70
2023-03-06T21:33:11.714Z,18.10
2023-03-06T21:35:42.531Z,18.63
2023-03-06T21:38:09.602Z,17.43
2023-03-06T21:40:36.493Z,17.73
2023-03-06T21:43:03.572Z,16.53
2023-03-06T21:45:31.198Z,18.30
2023-03-06T21:48:00.509Z,18.87
2023-03-06T21:50:28.271Z,17.40
2023-03-06T21:52:56.301Z,19.47
2023-03-06T21:55:23.007Z,14.33
2023-03-06T21:57:53.946Z,15.10
2023-03-06T22:00:23.234Z,14.57
2023-03-06T22:02:50.564Z,19.07
2023-03-06T22:05:17.116Z,15.80
2023-03-06T22:07:43.631Z,16.67
2023-03-06T22:10:15.628Z,16.83
2023-03-06T22:12:42.225Z,14.83
2023-03-06T22:15:09.573Z,15.33
2023-03-06T22:17:36.180Z,14.30
2023-03-06T22:20:02.698Z,13.80
2023-03-06T22:22:29.178Z,14.57
2023-03-06T22:24:55.635Z,14.00
2023-03-06T22:27:22.107Z,12.73
2023-03-06T22:29:48.522Z,15.00
2023-03-06T22:32:15.528Z,15.93
2023-03-06T22:34:42.074Z,15.27
2023-03-06T22:37:08.487Z,13.33
2023-03-06T22:39:34.951Z,11.17
2023-03-06T22:42:01.463Z,15.80
2023-03-06T22:44:27.885Z,8.47
2023-03-06T22:46:54.608Z,14.50
2023-03-06T22:49:21.082Z,6.33
2023-03-06T22:51:47.520Z,12.60
2023-03-06T22:54:14.119Z,9.43
2023-03-06T22:56:40.743Z,7.27
2023-03-06T22:59:07.188Z,8.77
2023-03-06T23:01:34.770Z,9.20
2023-03-06T23:04:03.775Z,8.13
2023-03-06T23:06:36.201Z,7.87
2023-03-06T23:09:03.282Z,9.97
2023-03-06T23:11:30.687Z,12.37
2023-03-06T23:13:57.554Z,10.73
2023-03-06T23:16:24.119Z,7.13
2023-03-06T23:18:53.014Z,7.67
2023-03-06T23:21:21.187Z,7.97
2023-03-06T23:23:49.800Z,7.33
2023-03-06T23:26:18.178Z,8.33
2023-03-06T23:28:44.828Z,6.77
2023-03-06T23:31:18.084Z,11.27
2023-03-06T23:33:44.687Z,8.60
2023-03-06T23:36:13.272Z,7.83
2023-03-06T23:38:40.794Z,7.37
2023-03-06T23:41:10.998Z,7.60
2023-03-06T23:43:37.448Z,7.03
2023-03-06T23:46:04.770Z,6.97
2023-03-06T23:48:31.762Z,8.80
2023-03-06T23:50:58.384Z,9.47
2023-03-06T23:53:25.453Z,9.23
2023-03-06T23:55:53.802Z,7.00
2023-03-06T23:58:20.418Z,6.37
